sensor_id;sensor_type;location;lat;lon;timestamp;pressure;altitude;pressure_sealevel;temperature;humidity
7050;BME280;22263;52.260;10.548;2022-07-12T00:00:54;101342.88;;;16.71;100.00
7050;BME280;22263;52.260;10.548;2022-07-12T00:03:23;101335.69;;;16.70;100.00
7050;BME280;22263;52.260;10.548;2022-07-12T00:05:53;101344.50;;;16.68;100.00
7050;BME280;22263;52.260;10.548;2022-07-12T00:08:23;101348.47;;;16.67;100.00
7050;BME280;22263;52.260;10.548;2022-07-12T00:10:55;101342.06;;;16.52;100.00
7050;BME280;22263;52.260;10.548;2022-07-12T00:13:24;101339.25;;;16.42;100.00
7050;BME280;22263;52.260;10.548;2022-07-12T00:15:54;101347.25;;;16.47;100.00
7050;BME280;22263;52.260;10.548;2022-07-12T00:18:24;101340.47;;;16.44;100.00
7050;BME280;22263;52.260;10.548;2022-07-12T00:20:53;101356.03;;;16.49;100.00
7050;BME280;22263;52.260;10.548;2022-07-12T00:23:23;101366.78;;;16.47;100.00
7050;BME280;22263;52.260;10.548;2022-07-12T00:25:55;101365.22;;;16.49;100.00
7050;BME280;22263;52.260;10.548;2022-07-12T00:28:26;101358.00;;;16.55;100.00
7050;BME280;22263;52.260;10.548;2022-07-12T00:30:56;101351.25;;;16.60;100.00
7050;BME280;22263;52.260;10.548;2022-07-12T00:33:26;101352.47;;;16.59;100.00
7050;BME280;22263;52.260;10.548;2022-07-12T00:35:55;101351.66;;;16.66;100.00
7050;BME280;22263;52.260;10.548;2022-07-12T00:38:25;101351.69;;;16.59;100.00
7050;BME280;22263;52.260;10.548;2022-07-12T00:40:57;101356.47;;;16.62;100.00
7050;BME280;22263;52.260;10.548;2022-07-12T00:43:26;101352.44;;;16.52;100.00
7050;BME280;22263;52.260;10.548;2022-07-12T00:45:56;101360.00;;;16.55;100.00
7050;BME280;22263;52.260;10.548;2022-07-12T00:48:25;101358.81;;;16.49;100.00
7050;BME280;22263;52.260;10.548;2022-07-12T00:50:55;101358.78;;;16.45;100.00
7050;BME280;22263;52.260;10.548;2022-07-12T00:53:24;101360.38;;;16.36;100.00
7050;BME280;22263;52.260;10.548;2022-07-12T00:55:58;101361.19;;;16.33;100.00
7050;BME280;22263;52.260;10.548;2022-07-12T00:58:28;101360.41;;;16.39;100.00
7050;BME280;22263;52.260;10.548;2022-07-12T01:00:58;101362.41;;;16.39;100.00
7050;BME280;22263;52.260;10.548;2022-07-12T01:03:28;101358.78;;;16.45;100.00
7050;BME280;22263;52.260;10.548;2022-07-12T01:05:58;101342.84;;;16.42;100.00
7050;BME280;22263;52.260;10.548;2022-07-12T01:08:30;101346.84;;;16.34;100.00
7050;BME280;22263;52.260;10.548;2022-07-12T01:11:03;101367.94;;;16.18;100.00
7050;BME280;22263;52.260;10.548;2022-07-12T01:13:32;101373.53;;;16.25;100.00
7050;BME280;22263;52.260;10.548;2022-07-12T01:16:05;101378.72;;;16.33;100.00
7050;BME280;22263;52.260;10.548;2022-07-12T01:18:36;101373.94;;;16.34;100.00
7050;BME280;22263;52.260;10.548;2022-07-12T01:21:08;101363.16;;;16.32;100.00
7050;BME280;22263;52.260;10.548;2022-07-12T01:23:41;101363.56;;;16.27;100.00
7050;BME280;22263;52.260;10.548;2022-07-12T01:26:11;101369.16;;;16.20;100.00
7050;BME280;22263;52.260;10.548;2022-07-12T01:28:41;101359.16;;;16.26;100.00
7050;BME280;22263;52.260;10.548;2022-07-12T01:31:10;101360.34;;;16.22;100.00
7050;BME280;22263;52.260;10.548;2022-07-12T01:33:40;101363.16;;;16.18;100.00
7050;BME280;22263;52.260;10.548;2022-07-12T01:36:09;101357.53;;;16.07;100.00
7050;BME280;22263;52.260;10.548;2022-07-12T01:38:41;101362.69;;;15.91;100.00
7050;BME280;22263;52.260;10.548;2022-07-12T01:41:11;101368.19;;;15.74;100.00
7050;BME280;22263;52.260;10.548;2022-07-12T01:43:40;101362.53;;;15.56;100.00
7050;BME280;22263;52.260;10.548;2022-07-12T01:46:10;101368.91;;;15.53;100.00
7050;BME280;22263;52.260;10.548;2022-07-12T01:48:39;101373.22;;;15.50;100.00
7050;BME280;22263;52.260;10.548;2022-07-12T01:51:09;101370.00;;;15.45;100.00
7050;BME280;22263;52.260;10.548;2022-07-12T01:53:41;101372.78;;;15.45;100.00
7050;BME280;22263;52.260;10.548;2022-07-12T01:56:10;101377.53;;;15.34;100.00
7050;BME280;22263;52.260;10.548;2022-07-12T01:58:40;101373.16;;;15.40;100.00
7050;BME280;22263;52.260;10.548;2022-07-12T02:01:10;101380.72;;;15.36;100.00
7050;BME280;22263;52.260;10.548;2022-07-12T02:03:40;101375.91;;;15.29;100.00
7050;BME280;22263;52.260;10.548;2022-07-12T02:06:09;101388.69;;;15.34;100.00
7050;BME280;22263;52.260;10.548;2022-07-12T02:08:43;101397.06;;;15.41;100.00
7050;BME280;22263;52.260;10.548;2022-07-12T02:11:12;101388.69;;;15.41;100.00
7050;BME280;22263;52.260;10.548;2022-07-12T02:13:42;101389.50;;;15.41;100.00
7050;BME280;22263;52.260;10.548;2022-07-12T02:16:11;101378.38;;;15.45;100.00
7050;BME280;22263;52.260;10.548;2022-07-12T02:18:41;101385.97;;;15.44;100.00
7050;BME280;22263;52.260;10.548;2022-07-12T02:21:10;101378.00;;;15.50;100.00
7050;BME280;22263;52.260;10.548;2022-07-12T02:23:39;101372.41;;;15.50;100.00
7050;BME280;22263;52.260;10.548;2022-07-12T02:26:11;101374.81;;;15.48;100.00
7050;BME280;22263;52.260;10.548;2022-07-12T02:28:41;101376.09;;;15.54;100.00
7050;BME280;22263;52.260;10.548;2022-07-12T02:31:11;101376.09;;;15.54;100.00
7050;BME280;22263;52.260;10.548;2022-07-12T02:33:40;101373.69;;;15.59;100.00
7050;BME280;22263;52.260;10.548;2022-07-12T02:36:11;101366.94;;;15.64;100.00
7050;BME280;22263;52.260;10.548;2022-07-12T02:38:40;101364.16;;;15.60;100.00
7050;BME280;22263;52.260;10.548;2022-07-12T02:41:12;101365.75;;;15.58;100.00
7050;BME280;22263;52.260;10.548;2022-07-12T02:43:42;101369.72;;;15.57;100.00
7050;BME280;22263;52.260;10.548;2022-07-12T02:46:12;101361.63;;;15.45;100.00
7050;BME280;22263;52.260;10.548;2022-07-12T02:48:42;101364.44;;;15.45;100.00
7050;BME280;22263;52.260;10.548;2022-07-12T02:51:12;101369.19;;;15.37;100.00
7050;BME280;22263;52.260;10.548;2022-07-12T02:53:41;101370.34;;;15.36;100.00
7050;BME280;22263;52.260;10.548;2022-07-12T02:56:13;101375.94;;;15.40;100.00
7050;BME280;22263;52.260;10.548;2022-07-12T02:58:43;101372.75;;;15.38;100.00
7050;BME280;22263;52.260;10.548;2022-07-12T03:01:12;101371.53;;;15.35;100.00
7050;BME280;22263;52.260;10.548;2022-07-12T03:03:43;101370.34;;;15.36;100.00
7050;BME280;22263;52.260;10.548;2022-07-12T03:06:12;101385.81;;;15.26;100.00
7050;BME280;22263;52.260;10.548;2022-07-12T03:08:42;101386.63;;;15.27;100.00
7050;BME280;22263;52.260;10.548;2022-07-12T03:11:14;101395.38;;;15.25;100.00
7050;BME280;22263;52.260;10.548;2022-07-12T03:13:43;101394.19;;;15.26;100.00
7050;BME280;22263;52.260;10.548;2022-07-12T03:16:13;101403.78;;;15.29;100.00
7050;BME280;22263;52.260;10.548;2022-07-12T03:18:43;101403.00;;;15.32;100.00
7050;BME280;22263;52.260;10.548;2022-07-12T03:21:12;101407.78;;;15.35;100.00
7050;BME280;22263;52.260;10.548;2022-07-12T03:23:43;101411.38;;;15.36;100.00
7050;BME280;22263;52.260;10.548;2022-07-12T03:26:15;101412.97;;;15.33;100.00
7050;BME280;22263;52.260;10.548;2022-07-12T03:28:44;101420.13;;;15.34;100.00
7050;BME280;22263;52.260;10.548;2022-07-12T03:31:14;101421.66;;;15.24;100.00
7050;BME280;22263;52.260;10.548;2022-07-12T03:33:43;101428.41;;;15.20;100.00
7050;BME280;22263;52.260;10.548;2022-07-12T03:36:13;101433.53;;;15.18;100.00
7050;BME280;22263;52.260;10.548;2022-07-12T03:38:42;101440.31;;;15.20;100.00
7050;BME280;22263;52.260;10.548;2022-07-12T03:41:11;101443.09;;;15.20;100.00
7050;BME280;22263;52.260;10.548;2022-07-12T03:43:43;101438.28;;;15.10;100.00
7050;BME280;22263;52.260;10.548;2022-07-12T03:46:13;101443.06;;;15.13;100.00
7050;BME280;22263;52.260;10.548;2022-07-12T03:48:42;101450.66;;;15.16;100.00
7050;BME280;22263;52.260;10.548;2022-07-12T03:51:12;101451.47;;;15.20;100.00
7050;BME280;22263;52.260;10.548;2022-07-12T03:53:41;101445.84;;;15.13;100.00
7050;BME280;22263;52.260;10.548;2022-07-12T03:56:10;101448.63;;;15.10;100.00
7050;BME280;22263;52.260;10.548;2022-07-12T03:59:03;101452.25;;;15.17;100.00
7050;BME280;22263;52.260;10.548;2022-07-12T04:01:32;101452.59;;;15.12;100.00
7050;BME280;22263;52.260;10.548;2022-07-12T04:04:02;101457.44;;;15.19;100.00
7050;BME280;22263;52.260;10.548;2022-07-12T04:06:31;101458.66;;;15.21;100.00
7050;BME280;22263;52.260;10.548;2022-07-12T04:09:01;101471.75;;;15.17;100.00
7050;BME280;22263;52.260;10.548;2022-07-12T04:11:30;101468.59;;;15.19;100.00
7050;BME280;22263;52.260;10.548;2022-07-12T04:13:59;101474.66;;;15.32;100.00
7050;BME280;22263;52.260;10.548;2022-07-12T04:16:31;101473.09;;;15.34;100.00
7050;BME280;22263;52.260;10.548;2022-07-12T04:19:01;101472.28;;;15.34;100.00
7050;BME280;22263;52.260;10.548;2022-07-12T04:21:31;101476.28;;;15.40;100.00
7050;BME280;22263;52.260;10.548;2022-07-12T04:24:01;101466.88;;;15.51;100.00
7050;BME280;22263;52.260;10.548;2022-07-12T04:26:30;101472.41;;;15.48;100.00
7050;BME280;22263;52.260;10.548;2022-07-12T04:28:59;101474.75;;;15.46;100.00
7050;BME280;22263;52.260;10.548;2022-07-12T04:31:31;101480.75;;;15.48;100.00
7050;BME280;22263;52.260;10.548;2022-07-12T04:34:01;101479.53;;;15.45;100.00
7050;BME280;22263;52.260;10.548;2022-07-12T04:36:30;101473.47;;;15.33;100.00
7050;BME280;22263;52.260;10.548;2022-07-12T04:39:00;101477.78;;;15.26;100.00
7050;BME280;22263;52.260;10.548;2022-07-12T04:41:30;101477.88;;;15.34;100.00
7050;BME280;22263;52.260;10.548;2022-07-12T04:44:02;101480.69;;;15.41;100.00
7050;BME280;22263;52.260;10.548;2022-07-12T04:46:34;101476.69;;;15.35;100.00
7050;BME280;22263;52.260;10.548;2022-07-12T04:49:04;101475.41;;;15.25;100.00
7050;BME280;22263;52.260;10.548;2022-07-12T04:51:33;101477.06;;;15.33;100.00
7050;BME280;22263;52.260;10.548;2022-07-12T04:54:03;101476.69;;;15.38;100.00
7050;BME280;22263;52.260;10.548;2022-07-12T04:56:32;101479.16;;;15.47;100.00
7050;BME280;22263;52.260;10.548;2022-07-12T04:59:02;101473.56;;;15.47;100.00
7050;BME280;22263;52.260;10.548;2022-07-12T05:01:34;101474.03;;;15.52;100.00
7050;BME280;22263;52.260;10.548;2022-07-12T05:04:04;101477.28;;;15.58;100.00
7050;BME280;22263;52.260;10.548;2022-07-12T05:06:33;101472.91;;;15.64;100.00
7050;BME280;22263;52.260;10.548;2022-07-12T05:09:02;101464.88;;;15.55;100.00
7050;BME280;22263;52.260;10.548;2022-07-12T05:11:32;101469.81;;;15.76;100.00
7050;BME280;22263;52.260;10.548;2022-07-12T05:14:01;101466.66;;;15.81;100.00
7050;BME280;22263;52.260;10.548;2022-07-12T05:16:33;101462.72;;;15.93;100.00
7050;BME280;22263;52.260;10.548;2022-07-12T05:19:03;101469.81;;;15.80;100.00
7050;BME280;22263;52.260;10.548;2022-07-12T05:21:32;101465.03;;;15.80;100.00
7050;BME280;22263;52.260;10.548;2022-07-12T05:24:02;101461.84;;;15.78;100.00
7050;BME280;22263;52.260;10.548;2022-07-12T05:26:32;101471.38;;;15.74;100.00
7050;BME280;22263;52.260;10.548;2022-07-12T05:29:02;101471.78;;;15.72;100.00
7050;BME280;22263;52.260;10.548;2022-07-12T05:31:34;101480.25;;;15.90;100.00
7050;BME280;22263;52.260;10.548;2022-07-12T05:34:03;101483.53;;;16.13;100.00
7050;BME280;22263;52.260;10.548;2022-07-12T05:36:33;101474.41;;;16.20;100.00
7050;BME280;22263;52.260;10.548;2022-07-12T05:39:02;101469.63;;;16.31;100.00
7050;BME280;22263;52.260;10.548;2022-07-12T05:41:32;101473.69;;;16.51;100.00
7050;BME280;22263;52.260;10.548;2022-07-12T05:44:01;101472.19;;;16.75;100.00
7050;BME280;22263;52.260;10.548;2022-07-12T05:46:34;101464.63;;;16.89;100.00
7050;BME280;22263;52.260;10.548;2022-07-12T05:49:03;101463.00;;;16.71;100.00
7050;BME280;22263;52.260;10.548;2022-07-12T05:51:33;101456.22;;;16.93;100.00
7050;BME280;22263;52.260;10.548;2022-07-12T05:54:14;101464.22;;;16.94;100.00
7050;BME280;22263;52.260;10.548;2022-07-12T05:56:44;101459.03;;;17.04;100.00
7050;BME280;22263;52.260;10.548;2022-07-12T05:59:13;101456.66;;;17.16;100.00
7050;BME280;22263;52.260;10.548;2022-07-12T06:01:45;101451.84;;;17.24;100.00
7050;BME280;22263;52.260;10.548;2022-07-12T06:04:14;101455.44;;;17.46;100.00
7050;BME280;22263;52.260;10.548;2022-07-12T06:06:44;101446.22;;;17.73;100.00
7050;BME280;22263;52.260;10.548;2022-07-12T06:09:13;101444.06;;;18.16;100.00
7050;BME280;22263;52.260;10.548;2022-07-12T06:11:42;101442.78;;;18.28;100.00
7050;BME280;22263;52.260;10.548;2022-07-12T06:14:12;101438.31;;;18.38;100.00
7050;BME280;22263;52.260;10.548;2022-07-12T06:16:41;101435.69;;;18.06;100.00
7050;BME280;22263;52.260;10.548;2022-07-12T06:19:13;101430.84;;;18.13;100.00
7050;BME280;22263;52.260;10.548;2022-07-12T06:21:43;101428.00;;;18.24;100.00
7050;BME280;22263;52.260;10.548;2022-07-12T06:24:12;101422.38;;;18.27;100.00
7050;BME280;22263;52.260;10.548;2022-07-12T06:26:41;101432.09;;;18.05;100.00
7050;BME280;22263;52.260;10.548;2022-07-12T06:29:11;101428.50;;;18.01;100.00
7050;BME280;22263;52.260;10.548;2022-07-12T06:31:40;101433.53;;;18.38;100.00
7050;BME280;22263;52.260;10.548;2022-07-12T06:34:09;101422.38;;;18.31;100.00
7050;BME280;22263;52.260;10.548;2022-07-12T06:36:41;101429.53;;;18.39;100.00
7050;BME280;22263;52.260;10.548;2022-07-12T06:39:11;101423.44;;;18.58;100.00
7050;BME280;22263;52.260;10.548;2022-07-12T06:41:41;101431.56;;;18.35;100.00
7050;BME280;22263;52.260;10.548;2022-07-12T06:44:10;101428.34;;;18.33;100.00
7050;BME280;22263;52.260;10.548;2022-07-12T06:46:40;101431.28;;;18.08;100.00
7050;BME280;22263;52.260;10.548;2022-07-12T06:49:14;101423.56;;;18.30;100.00
7050;BME280;22263;52.260;10.548;2022-07-12T06:51:46;101425.25;;;18.13;100.00
7050;BME280;22263;52.260;10.548;2022-07-12T06:54:15;101423.59;;;18.23;100.00
7050;BME280;22263;52.260;10.548;2022-07-12T06:56:45;101426.75;;;18.36;100.00
7050;BME280;22263;52.260;10.548;2022-07-12T06:59:14;101426.31;;;18.37;100.00
7050;BME280;22263;52.260;10.548;2022-07-12T07:01:44;101420.06;;;18.81;100.00
7050;BME280;22263;52.260;10.548;2022-07-12T07:04:13;101420.84;;;19.30;100.00
7050;BME280;22263;52.260;10.548;2022-07-12T07:06:42;101423.72;;;19.64;100.00
7050;BME280;22263;52.260;10.548;2022-07-12T07:09:14;101412.50;;;19.64;100.00
7050;BME280;22263;52.260;10.548;2022-07-12T07:11:44;101412.22;;;19.88;100.00
7050;BME280;22263;52.260;10.548;2022-07-12T07:14:13;101418.03;;;20.05;100.00
7050;BME280;22263;52.260;10.548;2022-07-12T07:16:43;101416.06;;;20.85;100.00
7050;BME280;22263;52.260;10.548;2022-07-12T07:19:13;101413.53;;;21.18;100.00
7050;BME280;22263;52.260;10.548;2022-07-12T07:21:48;101414.69;;;21.20;100.00
7050;BME280;22263;52.260;10.548;2022-07-12T07:24:20;101409.34;;;21.26;100.00
7050;BME280;22263;52.260;10.548;2022-07-12T07:26:50;101409.16;;;21.37;100.00
7050;BME280;22263;52.260;10.548;2022-07-12T07:29:23;101405.44;;;21.43;100.00
7050;BME280;22263;52.260;10.548;2022-07-12T07:32:06;101403.56;;;21.56;100.00
7050;BME280;22263;52.260;10.548;2022-07-12T07:34:36;101408.25;;;21.43;100.00
7050;BME280;22263;52.260;10.548;2022-07-12T07:37:05;101412.19;;;20.49;100.00
7050;BME280;22263;52.260;10.548;2022-07-12T07:39:37;101415.03;;;20.76;100.00
7050;BME280;22263;52.260;10.548;2022-07-12T07:42:07;101407.66;;;20.82;100.00
7050;BME280;22263;52.260;10.548;2022-07-12T07:44:36;101421.25;;;21.14;100.00
7050;BME280;22263;52.260;10.548;2022-07-12T07:47:26;101418.34;;;21.41;100.00
7050;BME280;22263;52.260;10.548;2022-07-12T07:49:55;101416.72;;;21.63;100.00
7050;BME280;22263;52.260;10.548;2022-07-12T07:52:25;101415.06;;;21.85;100.00
7050;BME280;22263;52.260;10.548;2022-07-12T07:54:57;101410.53;;;22.47;100.00
7050;BME280;22263;52.260;10.548;2022-07-12T07:57:26;101411.59;;;22.53;100.00
7050;BME280;22263;52.260;10.548;2022-07-12T07:59:56;101415.19;;;22.17;100.00
7050;BME280;22263;52.260;10.548;2022-07-12T08:02:25;101407.84;;;22.76;100.00
7050;BME280;22263;52.260;10.548;2022-07-12T08:04:54;101405.16;;;23.33;100.00
7050;BME280;22263;52.260;10.548;2022-07-12T08:07:24;101405.28;;;23.14;100.00
7050;BME280;22263;52.260;10.548;2022-07-12T08:10:16;101402.19;;;23.24;100.00
7050;BME280;22263;52.260;10.548;2022-07-12T08:12:45;101407.03;;;23.24;100.00
7050;BME280;22263;52.260;10.548;2022-07-12T08:15:15;101409.84;;;23.40;100.00
7050;BME280;22263;52.260;10.548;2022-07-12T08:17:44;101414.69;;;23.23;100.00
7050;BME280;22263;52.260;10.548;2022-07-12T08:20:20;101408.28;;;23.07;100.00
7050;BME280;22263;52.260;10.548;2022-07-12T08:23:10;101406.53;;;22.96;100.00
7050;BME280;22263;52.260;10.548;2022-07-12T08:25:42;101395.69;;;22.79;100.00
7050;BME280;22263;52.260;10.548;2022-07-12T08:28:11;101406.19;;;22.42;100.00
7050;BME280;22263;52.260;10.548;2022-07-12T08:30:41;101404.59;;;22.25;100.00
7050;BME280;22263;52.260;10.548;2022-07-12T08:33:13;101401.19;;;22.66;100.00
7050;BME280;22263;52.260;10.548;2022-07-12T08:35:43;101400.25;;;22.89;100.00
7050;BME280;22263;52.260;10.548;2022-07-12T08:38:12;101394.94;;;23.68;100.00
7050;BME280;22263;52.260;10.548;2022-07-12T08:40:45;101396.94;;;23.39;100.00
7050;BME280;22263;52.260;10.548;2022-07-12T08:43:14;101398.50;;;23.85;100.00
7050;BME280;22263;52.260;10.548;2022-07-12T08:45:43;101386.09;;;23.54;100.00
7050;BME280;22263;52.260;10.548;2022-07-12T08:48:13;101384.28;;;23.15;100.00
7050;BME280;22263;52.260;10.548;2022-07-12T08:50:42;101388.97;;;23.21;100.00
7050;BME280;22263;52.260;10.548;2022-07-12T08:53:28;101384.22;;;23.76;100.00
7050;BME280;22263;52.260;10.548;2022-07-12T08:56:00;101376.88;;;23.21;100.00
7050;BME280;22263;52.260;10.548;2022-07-12T08:58:30;101380.16;;;24.18;100.00
7050;BME280;22263;52.260;10.548;2022-07-12T09:01:00;101383.56;;;24.51;100.00
7050;BME280;22263;52.260;10.548;2022-07-12T09:03:29;101381.44;;;24.55;99.86
7050;BME280;22263;52.260;10.548;2022-07-12T09:05:59;101380.97;;;24.31;100.00
7050;BME280;22263;52.260;10.548;2022-07-12T09:08:30;101396.03;;;24.41;100.00
7050;BME280;22263;52.260;10.548;2022-07-12T09:11:03;101386.00;;;25.00;97.74
7050;BME280;22263;52.260;10.548;2022-07-12T09:13:49;101390.75;;;25.37;90.93
7050;BME280;22263;52.260;10.548;2022-07-12T09:16:20;101400.03;;;25.50;92.56
7050;BME280;22263;52.260;10.548;2022-07-12T09:18:51;101399.69;;;25.48;89.49
7050;BME280;22263;52.260;10.548;2022-07-12T09:21:24;101377.69;;;26.18;87.59
7050;BME280;22263;52.260;10.548;2022-07-12T09:23:55;101387.88;;;25.63;89.71
7050;BME280;22263;52.260;10.548;2022-07-12T09:26:30;101382.75;;;25.70;90.87
7050;BME280;22263;52.260;10.548;2022-07-12T09:29:06;101387.97;;;26.24;86.40
7050;BME280;22263;52.260;10.548;2022-07-12T09:31:44;101380.88;;;27.18;76.92
7050;BME280;22263;52.260;10.548;2022-07-12T09:34:36;101385.78;;;27.72;75.21
7050;BME280;22263;52.260;10.548;2022-07-12T09:37:27;101390.84;;;28.79;67.65
7050;BME280;22263;52.260;10.548;2022-07-12T09:39:56;101389.00;;;28.25;65.88
7050;BME280;22263;52.260;10.548;2022-07-12T09:42:29;101391.69;;;30.24;55.81
7050;BME280;22263;52.260;10.548;2022-07-12T09:44:59;101384.41;;;30.23;52.86
7050;BME280;22263;52.260;10.548;2022-07-12T09:47:32;101382.59;;;29.29;60.16
7050;BME280;22263;52.260;10.548;2022-07-12T09:50:03;101388.72;;;28.89;61.41
7050;BME280;22263;52.260;10.548;2022-07-12T09:52:36;101376.25;;;27.93;66.11
7050;BME280;22263;52.260;10.548;2022-07-12T09:55:09;101385.69;;;28.59;62.48
7050;BME280;22263;52.260;10.548;2022-07-12T09:57:43;101392.25;;;26.69;70.22
7050;BME280;22263;52.260;10.548;2022-07-12T10:00:15;101394.75;;;26.05;82.88
7050;BME280;22263;52.260;10.548;2022-07-12T10:02:45;101398.53;;;26.64;78.58
7050;BME280;22263;52.260;10.548;2022-07-12T10:05:16;101396.75;;;28.06;70.94
7050;BME280;22263;52.260;10.548;2022-07-12T10:07:46;101394.72;;;28.91;61.12
7050;BME280;22263;52.260;10.548;2022-07-12T10:10:17;101391.72;;;28.01;66.77
7050;BME280;22263;52.260;10.548;2022-07-12T10:12:51;101396.94;;;28.54;60.45
7050;BME280;22263;52.260;10.548;2022-07-12T10:15:25;101396.97;;;28.45;61.13
7050;BME280;22263;52.260;10.548;2022-07-12T10:17:55;101384.63;;;27.97;60.48
7050;BME280;22263;52.260;10.548;2022-07-12T10:20:27;101378.75;;;29.70;55.04
7050;BME280;22263;52.260;10.548;2022-07-12T10:23:29;101377.97;;;29.84;52.42
7050;BME280;22263;52.260;10.548;2022-07-12T10:26:04;101377.63;;;29.92;51.42
7050;BME280;22263;52.260;10.548;2022-07-12T10:29:05;101378.19;;;29.81;49.53
7050;BME280;22263;52.260;10.548;2022-07-12T10:31:37;101370.34;;;29.14;52.04
7050;BME280;22263;52.260;10.548;2022-07-12T10:34:14;101362.78;;;31.01;45.92
7050;BME280;22263;52.260;10.548;2022-07-12T10:40:13;101358.00;;;29.84;49.12
7050;BME280;22263;52.260;10.548;2022-07-12T10:43:14;101351.25;;;29.82;50.11
7050;BME280;22263;52.260;10.548;2022-07-12T10:45:47;101357.06;;;29.87;51.56
7050;BME280;22263;52.260;10.548;2022-07-12T10:48:23;101351.66;;;30.68;48.49
7050;BME280;22263;52.260;10.548;2022-07-12T10:50:55;101349.16;;;29.53;53.39
7050;BME280;22263;52.260;10.548;2022-07-12T10:53:30;101343.19;;;30.10;50.05
7050;BME280;22263;52.260;10.548;2022-07-12T10:56:10;101348.59;;;30.08;48.67
7050;BME280;22263;52.260;10.548;2022-07-12T10:58:44;101335.75;;;30.47;47.81
7050;BME280;22263;52.260;10.548;2022-07-12T11:01:18;101330.84;;;30.33;48.41
7050;BME280;22263;52.260;10.548;2022-07-12T11:03:49;101331.00;;;31.40;44.04
7050;BME280;22263;52.260;10.548;2022-07-12T11:06:21;101332.75;;;30.56;43.07
7050;BME280;22263;52.260;10.548;2022-07-12T11:08:52;101339.47;;;31.08;42.31
7050;BME280;22263;52.260;10.548;2022-07-12T11:11:24;101332.84;;;31.17;41.11
7050;BME280;22263;52.260;10.548;2022-07-12T11:13:55;101325.19;;;31.54;40.54
7050;BME280;22263;52.260;10.548;2022-07-12T11:16:28;101331.22;;;30.96;41.95
7050;BME280;22263;52.260;10.548;2022-07-12T11:18:58;101319.50;;;30.53;43.81
7050;BME280;22263;52.260;10.548;2022-07-12T11:21:34;101333.63;;;29.83;43.57
7050;BME280;22263;52.260;10.548;2022-07-12T11:24:15;101326.72;;;29.61;43.59
7050;BME280;22263;52.260;10.548;2022-07-12T11:26:45;101316.06;;;30.49;43.45
7050;BME280;22263;52.260;10.548;2022-07-12T11:29:15;101321.06;;;29.90;44.17
7050;BME280;22263;52.260;10.548;2022-07-12T11:31:47;101308.09;;;30.39;41.73
7050;BME280;22263;52.260;10.548;2022-07-12T11:34:20;101310.88;;;30.88;40.68
7050;BME280;22263;52.260;10.548;2022-07-12T11:36:51;101304.88;;;31.52;38.00
7050;BME280;22263;52.260;10.548;2022-07-12T11:39:32;101300.91;;;30.28;39.88
7050;BME280;22263;52.260;10.548;2022-07-12T11:42:03;101303.28;;;31.51;39.06
7050;BME280;22263;52.260;10.548;2022-07-12T11:44:44;101306.31;;;32.25;36.96
7050;BME280;22263;52.260;10.548;2022-07-12T11:47:17;101302.31;;;31.08;38.79
7050;BME280;22263;52.260;10.548;2022-07-12T11:49:49;101302.53;;;31.05;40.81
7050;BME280;22263;52.260;10.548;2022-07-12T11:52:20;101311.22;;;30.75;40.02
7050;BME280;22263;52.260;10.548;2022-07-12T11:54:52;101293.00;;;31.13;39.86
7050;BME280;22263;52.260;10.548;2022-07-12T11:57:22;101306.31;;;31.16;38.71
7050;BME280;22263;52.260;10.548;2022-07-12T11:59:52;101302.28;;;31.54;37.68
7050;BME280;22263;52.260;10.548;2022-07-12T12:02:28;101297.91;;;31.33;38.34
7050;BME280;22263;52.260;10.548;2022-07-12T12:04:58;101296.38;;;30.92;38.26
7050;BME280;22263;52.260;10.548;2022-07-12T12:07:28;101284.69;;;31.36;38.85
7050;BME280;22263;52.260;10.548;2022-07-12T12:09:58;101291.63;;;31.81;38.16
7050;BME280;22263;52.260;10.548;2022-07-12T12:12:27;101292.53;;;29.90;41.10
7050;BME280;22263;52.260;10.548;2022-07-12T12:15:01;101290.41;;;31.36;38.60
7050;BME280;22263;52.260;10.548;2022-07-12T12:17:33;101292.44;;;30.49;40.54
7050;BME280;22263;52.260;10.548;2022-07-12T12:20:12;101279.63;;;30.44;40.28
7050;BME280;22263;52.260;10.548;2022-07-12T12:22:42;101282.78;;;30.46;41.40
7050;BME280;22263;52.260;10.548;2022-07-12T12:25:11;101278.34;;;30.45;41.95
7050;BME280;22263;52.260;10.548;2022-07-12T12:27:44;101271.13;;;31.56;41.39
7050;BME280;22263;52.260;10.548;2022-07-12T12:30:48;101274.72;;;31.05;41.91
7050;BME280;22263;52.260;10.548;2022-07-12T12:33:37;101264.66;;;31.62;40.23
7050;BME280;22263;52.260;10.548;2022-07-12T12:36:14;101260.50;;;30.91;40.39
7050;BME280;22263;52.260;10.548;2022-07-12T12:38:44;101260.78;;;31.39;40.72
7050;BME280;22263;52.260;10.548;2022-07-12T12:41:14;101266.38;;;30.61;41.29
7050;BME280;22263;52.260;10.548;2022-07-12T12:43:44;101262.91;;;32.32;38.18
7050;BME280;22263;52.260;10.548;2022-07-12T12:46:20;101254.97;;;31.85;37.18
7050;BME280;22263;52.260;10.548;2022-07-12T12:48:53;101253.91;;;31.25;37.59
7050;BME280;22263;52.260;10.548;2022-07-12T12:51:22;101261.53;;;31.08;38.35
7050;BME280;22263;52.260;10.548;2022-07-12T12:53:55;101248.66;;;30.98;38.16
7050;BME280;22263;52.260;10.548;2022-07-12T12:56:25;101249.22;;;31.53;37.14
7050;BME280;22263;52.260;10.548;2022-07-12T12:58:55;101251.03;;;31.51;37.25
7050;BME280;22263;52.260;10.548;2022-07-12T13:01:24;101251.25;;;31.73;38.32
7050;BME280;22263;52.260;10.548;2022-07-12T13:03:56;101245.66;;;31.58;37.92
7050;BME280;22263;52.260;10.548;2022-07-12T13:06:26;101245.78;;;30.98;38.32
7050;BME280;22263;52.260;10.548;2022-07-12T13:08:55;101251.09;;;31.31;36.04